createdAt,value
2017-08-28T00:01:54.504Z,17.90
2017-08-28T00:04:25.531Z,18.10
2017-08-28T00:06:54.005Z,18.30
2017-08-28T00:09:29.388Z,18.30
2017-08-28T00:12:00.984Z,18.20
2017-08-28T00:14:29.453Z,18.20
2017-08-28T00:16:57.955Z,18.10
2017-08-28T00:19:27.879Z,18.00
2017-08-28T00:22:03.158Z,17.90
2017-08-28T00:24:35.234Z,17.80
2017-08-28T00:27:03.699Z,17.70
2017-08-28T00:29:32.200Z,17.70
2017-08-28T00:32:00.726Z,17.70
2017-08-28T00:34:31.154Z,17.70
2017-08-28T00:36:59.672Z,17.70
2017-08-28T00:39:29.621Z,17.70
2017-08-28T00:41:58.078Z,17.80
2017-08-28T00:44:26.638Z,17.70
2017-08-28T00:46:58.595Z,17.70
2017-08-28T00:49:26.755Z,17.60
2017-08-28T00:51:55.335Z,17.50
2017-08-28T00:54:23.456Z,17.50
2017-08-28T00:56:54.015Z,17.40
2017-08-28T00:59:22.583Z,17.30
2017-08-28T01:01:52.920Z,17.30
2017-08-28T01:04:21.451Z,17.30
2017-08-28T01:06:50.479Z,17.30
2017-08-28T01:09:26.469Z,17.50
2017-08-28T01:11:56.494Z,17.40
2017-08-28T01:14:39.845Z,17.30
2017-08-28T01:17:08.359Z,17.20
2017-08-28T01:19:37.984Z,17.20
2017-08-28T01:22:06.808Z,17.20
2017-08-28T01:24:35.378Z,17.30
2017-08-28T01:27:03.851Z,17.50
2017-08-28T01:29:32.334Z,17.70
2017-08-28T01:32:00.954Z,18.20
2017-08-28T01:34:29.434Z,18.50
2017-08-28T01:37:00.518Z,18.60
2017-08-28T01:39:29.074Z,18.60
2017-08-28T01:41:59.311Z,18.60
2017-08-28T01:44:27.882Z,18.60
2017-08-28T01:46:58.263Z,18.60
2017-08-28T01:49:30.245Z,18.60
2017-08-28T01:52:01.666Z,18.60
2017-08-28T01:54:33.771Z,18.50
2017-08-28T01:59:45.705Z,18.50
2017-08-28T02:02:14.210Z,18.40
2017-08-28T02:04:43.331Z,18.30
2017-08-28T02:07:14.557Z,18.10
2017-08-28T02:09:43.068Z,18.00
2017-08-28T02:12:14.659Z,18.10
2017-08-28T02:14:45.006Z,18.00
2017-08-28T02:17:13.495Z,17.90
2017-08-28T02:19:44.962Z,17.80
2017-08-28T02:22:17.987Z,17.70
2017-08-28T02:32:43.523Z,17.00
2017-08-28T02:35:15.475Z,17.00
2017-08-28T02:43:05.792Z,17.00
2017-08-28T02:45:38.179Z,16.90
2017-08-28T02:50:20.746Z,16.80
2017-08-28T02:55:31.540Z,16.70
2017-08-28T02:58:00.246Z,16.70
2017-08-28T03:00:36.335Z,16.70
2017-08-28T03:03:08.141Z,17.00
2017-08-28T03:05:38.290Z,17.00
2017-08-28T03:08:13.553Z,17.20
2017-08-28T03:10:42.086Z,17.30
2017-08-28T03:13:17.949Z,17.40
2017-08-28T03:15:46.473Z,17.40
2017-08-28T03:18:22.515Z,17.40
2017-08-28T03:20:57.594Z,17.40
2017-08-28T03:23:26.107Z,17.40
2017-08-28T03:25:54.559Z,17.30
2017-08-28T03:28:23.287Z,17.30
2017-08-28T03:30:53.656Z,17.20
2017-08-28T03:33:22.305Z,17.10
2017-08-28T03:35:54.216Z,17.00
2017-08-28T03:38:23.284Z,16.90
2017-08-28T03:40:51.579Z,17.00
2017-08-28T03:43:20.679Z,17.00
2017-08-28T03:45:49.218Z,16.80
2017-08-28T03:48:23.843Z,16.60
2017-08-28T03:50:52.726Z,16.60
2017-08-28T03:53:21.014Z,16.60
2017-08-28T03:55:49.331Z,16.50
2017-08-28T03:58:24.757Z,16.40
2017-08-28T04:00:55.463Z,16.40
2017-08-28T04:03:23.774Z,16.40
2017-08-28T04:05:54.011Z,16.40
2017-08-28T04:08:28.571Z,16.30
2017-08-28T04:10:56.873Z,16.20
2017-08-28T04:13:26.943Z,16.30
2017-08-28T04:15:55.473Z,16.20
2017-08-28T04:18:30.474Z,16.20
2017-08-28T04:20:59.037Z,16.20
2017-08-28T04:23:31.391Z,16.10
2017-08-28T04:25:59.849Z,16.00
2017-08-28T04:28:28.308Z,15.90
2017-08-28T04:31:00.328Z,15.90
2017-08-28T04:33:29.955Z,15.80
2017-08-28T04:35:58.407Z,15.90
2017-08-28T04:38:30.658Z,16.00
2017-08-28T04:40:59.118Z,16.10
2017-08-28T04:43:27.634Z,16.10
2017-08-28T04:45:59.187Z,16.10
2017-08-28T04:48:27.686Z,16.20
2017-08-28T04:50:58.768Z,16.20
2017-08-28T04:53:27.249Z,16.30
2017-08-28T04:55:59.039Z,16.40
2017-08-28T04:58:30.800Z,16.40
2017-08-28T05:01:04.027Z,16.50
2017-08-28T05:03:34.350Z,16.60
2017-08-28T05:06:03.519Z,16.70
2017-08-28T05:08:35.788Z,16.70
2017-08-28T05:11:04.259Z,16.70
2017-08-28T05:13:32.726Z,16.80
2017-08-28T05:16:01.241Z,16.90
2017-08-28T05:18:29.762Z,17.10
2017-08-28T05:20:58.248Z,17.20
2017-08-28T05:23:26.762Z,17.30
2017-08-28T05:25:55.239Z,17.40
2017-08-28T05:28:23.698Z,17.50
2017-08-28T05:30:52.183Z,17.60
2017-08-28T05:33:20.712Z,17.60
2017-08-28T05:35:53.996Z,17.70
2017-08-28T05:41:03.600Z,17.80
2017-08-28T05:43:32.147Z,17.90
2017-08-28T05:46:00.608Z,18.10
2017-08-28T05:48:29.052Z,18.20
2017-08-28T05:50:57.537Z,18.20
2017-08-28T05:53:26.054Z,18.30
2017-08-28T05:55:54.518Z,18.60
2017-08-28T05:58:22.981Z,18.70
2017-08-28T06:00:51.363Z,18.80
2017-08-28T06:03:20.777Z,18.80
2017-08-28T06:05:56.195Z,18.80
2017-08-28T06:08:24.662Z,18.70
2017-08-28T06:10:53.111Z,18.80
2017-08-28T06:13:21.647Z,19.00
2017-08-28T06:15:50.111Z,19.20
2017-08-28T06:18:18.595Z,19.50
2017-08-28T06:20:47.098Z,19.70
2017-08-28T06:23:15.554Z,20.00
2017-08-28T06:25:44.093Z,20.20
2017-08-28T06:28:13.368Z,20.20
2017-08-28T06:30:41.848Z,20.20
2017-08-28T06:35:44.334Z,19.80
2017-08-28T06:38:16.054Z,19.80
2017-08-28T06:40:44.761Z,19.80
2017-08-28T06:43:13.249Z,19.50
2017-08-28T06:45:41.721Z,19.50
2017-08-28T06:48:10.238Z,19.70
2017-08-28T06:50:38.699Z,19.70
2017-08-28T06:53:07.182Z,19.80
2017-08-28T06:55:35.747Z,20.00
2017-08-28T06:58:04.263Z,20.20
2017-08-28T07:00:32.719Z,20.40
2017-08-28T07:03:01.247Z,20.80
2017-08-28T07:05:29.695Z,21.00
2017-08-28T07:07:58.174Z,21.60
2017-08-28T07:10:26.627Z,21.70
2017-08-28T07:12:55.112Z,21.90
2017-08-28T07:15:23.602Z,22.40
2017-08-28T07:17:52.610Z,22.70
2017-08-28T07:20:21.110Z,23.10
2017-08-28T07:22:49.602Z,23.70
2017-08-28T07:25:18.370Z,24.30
2017-08-28T07:27:46.851Z,24.80
2017-08-28T07:30:15.357Z,25.20
2017-08-28T07:32:43.852Z,26.00
2017-08-28T07:35:12.131Z,26.40
2017-08-28T07:37:40.602Z,25.90
2017-08-28T07:40:09.149Z,26.00
2017-08-28T07:42:41.014Z,27.30
2017-08-28T07:45:09.504Z,27.80
2017-08-28T07:47:38.027Z,29.10
2017-08-28T07:50:15.269Z,29.20
2017-08-28T07:52:50.227Z,29.30
2017-08-28T07:55:20.718Z,29.50
2017-08-28T07:57:52.006Z,29.80
2017-08-28T08:00:20.496Z,29.60
2017-08-28T08:02:55.665Z,30.50
2017-08-28T08:05:24.180Z,30.80
2017-08-28T08:10:25.760Z,31.30
2017-08-28T08:12:54.271Z,30.70
2017-08-28T08:15:22.790Z,31.40
2017-08-28T08:17:56.123Z,31.30
2017-08-28T08:20:24.603Z,30.60
2017-08-28T08:22:54.682Z,30.60
2017-08-28T08:27:56.502Z,29.00
2017-08-28T08:30:24.984Z,28.80
2017-08-28T08:32:59.998Z,29.70
2017-08-28T08:38:04.267Z,31.80
2017-08-28T08:40:35.634Z,31.80
2017-08-28T08:45:42.847Z,32.40
2017-08-28T08:48:14.363Z,32.60
2017-08-28T08:50:53.647Z,32.10
2017-08-28T08:53:22.202Z,31.50
2017-08-28T08:55:50.719Z,30.40
2017-08-28T08:58:19.271Z,30.10
2017-08-28T09:00:47.770Z,29.60
2017-08-28T09:03:31.781Z,29.00
2017-08-28T09:08:51.207Z,29.60
2017-08-28T09:13:59.693Z,30.80
2017-08-28T09:16:28.743Z,31.40
2017-08-28T09:21:39.934Z,32.30
2017-08-28T09:24:08.407Z,31.70
2017-08-28T09:26:36.867Z,31.30
2017-08-28T09:29:05.370Z,31.00
2017-08-28T09:31:33.859Z,31.00
2017-08-28T09:34:02.313Z,31.00
2017-08-28T09:36:30.838Z,31.90
2017-08-28T09:38:59.379Z,31.20
2017-08-28T09:41:27.849Z,31.40
2017-08-28T09:44:04.806Z,31.70
2017-08-28T09:46:41.090Z,31.70
2017-08-28T09:49:12.820Z,31.30
2017-08-28T09:51:44.968Z,31.00
2017-08-28T09:54:13.354Z,30.70
2017-08-28T09:56:54.424Z,31.10
2017-08-28T09:59:23.081Z,31.40
2017-08-28T10:01:51.614Z,31.60
2017-08-28T10:04:20.095Z,31.50
2017-08-28T10:06:48.810Z,31.20
2017-08-28T10:09:17.298Z,30.80
2017-08-28T10:11:45.786Z,30.80
2017-08-28T10:14:14.334Z,30.50
2017-08-28T10:16:42.840Z,31.20
2017-08-28T10:19:11.314Z,30.90
2017-08-28T10:21:39.738Z,31.50
2017-08-28T10:24:08.255Z,31.30
2017-08-28T10:26:36.120Z,31.30
2017-08-28T10:29:04.687Z,30.00
2017-08-28T10:31:33.185Z,28.80
2017-08-28T10:34:01.715Z,27.70
2017-08-28T10:36:30.279Z,27.00
2017-08-28T10:38:58.804Z,26.40
2017-08-28T10:41:27.337Z,26.30
2017-08-28T10:43:55.895Z,26.10
2017-08-28T10:46:24.426Z,26.00
2017-08-28T10:48:52.939Z,25.70
2017-08-28T10:51:21.523Z,25.80
2017-08-28T10:53:50.062Z,25.60
2017-08-28T10:56:18.592Z,25.40
2017-08-28T10:58:47.115Z,25.50
2017-08-28T11:01:15.605Z,25.80
2017-08-28T11:03:44.139Z,26.90
2017-08-28T11:06:13.136Z,27.70
2017-08-28T11:08:41.633Z,27.70
2017-08-28T11:11:11.074Z,28.10
2017-08-28T11:13:39.617Z,28.00
2017-08-28T11:16:08.143Z,26.80
2017-08-28T11:18:36.671Z,26.40
2017-08-28T11:21:05.176Z,25.70
2017-08-28T11:23:33.771Z,25.70
2017-08-28T11:26:02.283Z,26.10
2017-08-28T11:28:30.808Z,26.20
2017-08-28T11:30:59.494Z,26.10
2017-08-28T11:33:28.011Z,26.90
2017-08-28T11:35:56.756Z,27.20
2017-08-28T11:38:25.347Z,27.20
2017-08-28T11:40:53.878Z,26.90
2017-08-28T11:43:22.416Z,26.20
2017-08-28T11:45:51.354Z,26.20
2017-08-28T11:48:19.898Z,26.60
2017-08-28T11:50:48.406Z,27.10
2017-08-28T11:53:16.956Z,27.00
2017-08-28T11:55:46.291Z,26.80
2017-08-28T11:58:14.850Z,26.10
2017-08-28T12:00:48.326Z,25.80
2017-08-28T12:03:20.689Z,25.70
2017-08-28T12:05:50.550Z,25.70
2017-08-28T12:11:01.734Z,26.10
2017-08-28T12:13:30.232Z,26.80
2017-08-28T12:15:59.362Z,27.20
2017-08-28T12:18:27.829Z,27.80
2017-08-28T12:20:56.341Z,27.80
2017-08-28T12:23:24.784Z,27.40
2017-08-28T12:25:53.660Z,26.90
2017-08-28T12:28:23.087Z,26.20
2017-08-28T12:30:51.556Z,25.50
2017-08-28T12:36:00.140Z,24.40
2017-08-28T12:38:28.606Z,24.00
2017-08-28T12:40:57.252Z,23.90
2017-08-28T12:43:25.890Z,23.80
2017-08-28T12:45:54.338Z,23.50
2017-08-28T12:48:23.087Z,23.20
2017-08-28T12:50:51.606Z,22.80
2017-08-28T12:53:20.954Z,22.60
2017-08-28T12:55:49.237Z,22.40
2017-08-28T12:58:17.824Z,22.10
2017-08-28T13:00:48.781Z,21.80
2017-08-28T13:03:17.274Z,21.70
2017-08-28T13:05:48.456Z,21.50
2017-08-28T13:08:16.945Z,21.40
2017-08-28T13:10:45.483Z,21.10
2017-08-28T13:13:14.443Z,20.90
2017-08-28T13:15:42.964Z,20.90
2017-08-28T13:18:11.455Z,20.80
2017-08-28T13:20:39.987Z,20.70
2017-08-28T13:23:08.476Z,20.60
2017-08-28T13:28:10.276Z,20.50
2017-08-28T13:30:38.709Z,20.50
2017-08-28T13:33:07.150Z,20.50
2017-08-28T13:35:35.590Z,20.30
2017-08-28T13:38:04.000Z,20.00
2017-08-28T13:40:32.413Z,19.90
2017-08-28T13:43:00.887Z,19.70
2017-08-28T13:45:29.371Z,19.60
2017-08-28T13:47:57.815Z,19.60
2017-08-28T13:50:26.275Z,19.60
2017-08-28T13:52:54.771Z,19.60
2017-08-28T13:55:23.242Z,19.60
2017-08-28T13:57:51.723Z,19.60
2017-08-28T14:00:20.249Z,19.40
2017-08-28T14:02:48.750Z,19.40
2017-08-28T14:05:17.307Z,19.30
2017-08-28T14:07:51.307Z,19.30
2017-08-28T14:10:19.778Z,19.20
2017-08-28T14:12:48.231Z,19.30
2017-08-28T14:15:17.481Z,19.20
2017-08-28T14:17:45.934Z,19.20
2017-08-28T14:20:14.386Z,19.20
2017-08-28T14:22:42.843Z,19.00
2017-08-28T14:25:11.288Z,19.10
2017-08-28T14:27:39.730Z,19.10
2017-08-28T14:30:08.158Z,19.10
2017-08-28T14:32:36.605Z,18.90
2017-08-28T14:35:05.074Z,18.70
2017-08-28T14:37:33.738Z,18.60
2017-08-28T14:40:02.150Z,18.30
2017-08-28T14:42:30.596Z,18.20
2017-08-28T14:44:59.079Z,18.10
2017-08-28T14:47:27.521Z,18.10
2017-08-28T14:49:55.954Z,18.00
2017-08-28T14:52:24.493Z,17.90
2017-08-28T14:54:52.950Z,17.90
2017-08-28T14:57:21.415Z,17.90
2017-08-28T14:59:52.845Z,17.90
2017-08-28T15:02:21.295Z,17.90
2017-08-28T15:04:49.719Z,17.90
2017-08-28T15:07:18.169Z,17.80
2017-08-28T15:09:46.587Z,17.80
2017-08-28T15:12:15.015Z,17.90
2017-08-28T15:14:43.495Z,17.90
2017-08-28T15:17:11.917Z,17.90
2017-08-28T15:19:40.610Z,18.00
2017-08-28T15:22:09.102Z,18.10
2017-08-28T15:24:37.520Z,18.20
2017-08-28T15:27:05.937Z,18.20
2017-08-28T15:29:34.435Z,18.30
2017-08-28T15:32:02.898Z,18.30
2017-08-28T15:34:31.350Z,18.30
2017-08-28T15:36:59.799Z,18.50
2017-08-28T15:39:28.313Z,18.60
2017-08-28T15:41:56.799Z,18.70
2017-08-28T15:44:25.287Z,18.70
2017-08-28T15:46:53.767Z,18.70
2017-08-28T15:49:22.253Z,18.70
2017-08-28T15:51:51.685Z,18.80
2017-08-28T15:54:20.153Z,18.90
2017-08-28T15:56:48.635Z,19.00
2017-08-28T15:59:17.183Z,19.10
2017-08-28T16:01:45.863Z,19.30
2017-08-28T16:04:14.325Z,19.40
2017-08-28T16:06:42.798Z,19.40
2017-08-28T16:09:12.006Z,19.60
2017-08-28T16:11:40.453Z,19.60
2017-08-28T16:14:08.999Z,19.60
2017-08-28T16:16:37.486Z,19.50
2017-08-28T16:19:05.936Z,19.20
2017-08-28T16:21:34.385Z,19.10
2017-08-28T16:24:02.828Z,19.00
2017-08-28T16:26:31.288Z,19.10
2017-08-28T16:28:59.795Z,18.80
2017-08-28T16:31:28.367Z,18.90
2017-08-28T16:33:56.931Z,18.80
2017-08-28T16:36:25.477Z,18.60
2017-08-28T16:38:53.980Z,18.40
2017-08-28T16:41:22.472Z,18.30
2017-08-28T16:43:50.938Z,18.40
2017-08-28T16:46:19.439Z,18.50
2017-08-28T16:48:47.950Z,18.50
2017-08-28T16:51:17.175Z,18.40
2017-08-28T16:53:45.646Z,18.40
2017-08-28T16:56:14.135Z,18.30
2017-08-28T16:58:42.566Z,18.20
2017-08-28T17:01:11.022Z,18.20
2017-08-28T17:03:39.545Z,18.10
2017-08-28T17:06:07.991Z,18.00
2017-08-28T17:08:36.466Z,17.90
2017-08-28T17:11:04.969Z,17.80
2017-08-28T17:13:33.435Z,17.70
2017-08-28T17:16:01.885Z,17.70
2017-08-28T17:18:30.401Z,17.70
2017-08-28T17:20:58.880Z,17.70
2017-08-28T17:23:27.195Z,17.60
2017-08-28T17:25:55.698Z,17.40
2017-08-28T17:28:24.180Z,17.30
2017-08-28T17:30:52.626Z,17.30
2017-08-28T17:33:21.152Z,17.20
2017-08-28T17:35:49.809Z,17.20
2017-08-28T17:38:18.346Z,17.10
2017-08-28T17:40:46.853Z,17.00
2017-08-28T17:43:15.315Z,16.80
2017-08-28T17:45:43.850Z,16.70
2017-08-28T17:48:12.299Z,16.60
2017-08-28T17:50:40.774Z,16.50
2017-08-28T17:53:09.242Z,16.40
2017-08-28T17:55:37.718Z,16.40
2017-08-28T17:58:06.194Z,16.40
2017-08-28T18:00:34.502Z,16.30
2017-08-28T18:03:02.831Z,16.30
2017-08-28T18:05:31.282Z,16.20
2017-08-28T18:07:59.769Z,16.10
2017-08-28T18:10:28.259Z,16.00
2017-08-28T18:12:56.747Z,15.90
2017-08-28T18:15:25.192Z,15.90
2017-08-28T18:17:53.651Z,15.80
2017-08-28T18:20:21.979Z,15.80
2017-08-28T18:22:50.451Z,15.70
2017-08-28T18:25:19.039Z,15.70
2017-08-28T18:27:47.504Z,15.70
2017-08-28T18:30:15.951Z,15.70
2017-08-28T18:32:44.431Z,15.70
2017-08-28T18:35:12.898Z,15.60
2017-08-28T18:37:41.372Z,15.60
2017-08-28T18:40:09.943Z,15.50
2017-08-28T18:42:38.483Z,15.40
2017-08-28T18:45:06.783Z,15.50
2017-08-28T18:47:35.299Z,15.40
2017-08-28T18:50:03.815Z,15.40
2017-08-28T18:52:32.320Z,15.40
2017-08-28T18:55:00.814Z,15.30
2017-08-28T18:57:29.322Z,15.40
2017-08-28T18:59:58.048Z,15.30
2017-08-28T19:02:26.563Z,15.10
2017-08-28T19:04:55.033Z,15.10
2017-08-28T19:07:23.314Z,15.10
2017-08-28T19:09:51.766Z,15.10
2017-08-28T19:12:20.290Z,15.10
2017-08-28T19:14:48.575Z,15.10
2017-08-28T19:17:16.889Z,15.00
2017-08-28T19:19:46.009Z,14.90
2017-08-28T19:22:14.482Z,14.90
2017-08-28T19:24:43.019Z,14.90
2017-08-28T19:27:11.391Z,14.90
2017-08-28T19:29:39.907Z,15.00
2017-08-28T19:32:08.737Z,14.90
2017-08-28T19:34:42.344Z,14.90
2017-08-28T19:37:10.830Z,14.90
2017-08-28T19:39:39.350Z,14.90
2017-08-28T19:42:07.860Z,14.80
2017-08-28T19:44:37.103Z,14.80
2017-08-28T19:47:05.599Z,14.70
2017-08-28T19:49:34.128Z,14.70
2017-08-28T19:52:02.642Z,14.60
2017-08-28T19:54:31.119Z,14.60
2017-08-28T19:56:59.643Z,14.50
2017-08-28T19:59:28.195Z,14.50
2017-08-28T20:01:56.580Z,14.50
2017-08-28T20:04:25.091Z,14.40
2017-08-28T20:06:53.540Z,14.50
2017-08-28T20:09:22.038Z,14.50
2017-08-28T20:11:50.541Z,14.50
2017-08-28T20:14:19.000Z,14.30
2017-08-28T20:16:47.530Z,14.30
2017-08-28T20:19:16.047Z,14.30
2017-08-28T20:21:44.546Z,14.20
2017-08-28T20:24:13.095Z,14.20
2017-08-28T20:26:41.613Z,14.10
2017-08-28T20:29:10.423Z,14.10
2017-08-28T20:31:38.992Z,14.00
2017-08-28T20:34:07.499Z,14.00
2017-08-28T20:36:35.964Z,14.00
2017-08-28T20:39:03.631Z,14.00
2017-08-28T20:41:32.134Z,14.00
2017-08-28T20:44:00.630Z,13.90
2017-08-28T20:46:29.177Z,14.00
2017-08-28T20:48:57.694Z,13.90
2017-08-28T20:51:26.203Z,13.90
2017-08-28T20:53:54.718Z,14.00
2017-08-28T20:56:23.202Z,13.80
2017-08-28T20:58:51.692Z,13.80
2017-08-28T21:01:20.211Z,13.80
2017-08-28T21:03:48.721Z,13.80
2017-08-28T21:06:17.181Z,13.70
2017-08-28T21:08:45.673Z,13.80
2017-08-28T21:11:14.139Z,13.70
2017-08-28T21:13:42.625Z,13.80
2017-08-28T21:16:11.324Z,13.80
2017-08-28T21:18:39.778Z,13.80
2017-08-28T21:21:08.262Z,13.80
2017-08-28T21:23:37.103Z,13.80
2017-08-28T21:26:05.591Z,13.80
2017-08-28T21:28:34.063Z,13.80
2017-08-28T21:31:02.553Z,13.80
2017-08-28T21:33:31.049Z,13.80
2017-08-28T21:35:59.552Z,13.80
2017-08-28T21:38:28.079Z,13.80
2017-08-28T21:40:56.602Z,13.80
2017-08-28T21:43:25.102Z,13.80
2017-08-28T21:45:53.579Z,13.90
2017-08-28T21:48:22.095Z,14.00
2017-08-28T21:50:51.341Z,14.30
2017-08-28T21:53:19.847Z,14.30
2017-08-28T21:55:48.326Z,14.40
2017-08-28T21:58:16.804Z,14.50
2017-08-28T22:00:45.382Z,14.50
2017-08-28T22:03:13.890Z,14.50
2017-08-28T22:05:42.187Z,14.60
2017-08-28T22:08:10.691Z,14.60
2017-08-28T22:10:39.202Z,14.70
2017-08-28T22:13:07.710Z,14.70
2017-08-28T22:15:36.197Z,14.70
2017-08-28T22:18:04.746Z,14.60
2017-08-28T22:20:33.233Z,14.60
2017-08-28T22:23:01.729Z,14.50
2017-08-28T22:25:30.199Z,14.50
2017-08-28T22:27:58.688Z,14.50
2017-08-28T22:30:27.168Z,14.50
2017-08-28T22:32:55.749Z,14.50
2017-08-28T22:35:24.258Z,14.50
2017-08-28T22:37:52.714Z,14.50
2017-08-28T22:40:21.198Z,14.50
2017-08-28T22:42:49.681Z,14.60
2017-08-28T22:45:18.187Z,14.70
2017-08-28T22:47:46.671Z,14.70
2017-08-28T22:50:15.151Z,14.70
2017-08-28T22:52:43.698Z,14.70
2017-08-28T22:55:12.206Z,14.70
2017-08-28T22:57:40.725Z,14.80
2017-08-28T23:00:09.203Z,14.70
2017-08-28T23:02:37.674Z,14.60
2017-08-28T23:05:06.235Z,14.60
2017-08-28T23:07:34.702Z,14.60
2017-08-28T23:10:03.182Z,14.60
2017-08-28T23:12:31.854Z,14.60
2017-08-28T23:15:01.081Z,14.40
2017-08-28T23:17:29.580Z,14.40
2017-08-28T23:19:58.220Z,14.40
2017-08-28T23:22:26.449Z,14.30
2017-08-28T23:24:54.927Z,14.30
2017-08-28T23:27:23.487Z,14.20
2017-08-28T23:29:52.577Z,14.10
2017-08-28T23:32:21.059Z,14.10
2017-08-28T23:34:49.611Z,14.10
2017-08-28T23:37:17.942Z,14.00
2017-08-28T23:39:46.414Z,14.00
2017-08-28T23:42:14.939Z,14.00
2017-08-28T23:44:43.498Z,14.10
2017-08-28T23:47:11.959Z,14.20
2017-08-28T23:49:40.427Z,14.30
2017-08-28T23:52:09.030Z,14.30
2017-08-28T23:54:37.485Z,14.50
2017-08-28T23:57:05.954Z,14.50
2017-08-28T23:59:34.417Z,14.60
